Terminal Aerodrome Forecast
Issued by NWS

Home | Current Version | Previous Version | Graphics & Text | Print | Product List | Glossary On
Versions: 1 2 3 4 5 6 7 8 9 10 11 12 13 14 15 16 17 18
003
FTUS43 KMPX 150539
TAFAXN
TAF
KAXN 150539Z 1506/1606 31012KT P6SM SCT004 BKN050
     FM151200 31016G24KT P6SM SCT007 BKN015 BKN035
     FM160000 32013KT P6SM BKN050=

USA.gov is the U.S. government's official web portal to all federal, state and local government web resources and services.